• Join FlightAware (Why Join?)
  • Login
  • US Flag 
05:58AM EDT


 

Airport Tracker/Info


-or-


 

Live Flight TrackerFlight Track Log ✈ EWG2787 ✈ 23-Apr-2013 ✈ EDDN / NUE - EDDL / DUS

Flight Track Log - Related Links

Times and Time Zones

All times are in EDT time to prevent confusion due to time zone crossing. See the EWG2787 flight status page for this flight to view local times or setup timezone preferences in your user account.

Time Position Orientation Groundspeed Altitude Reporting Facility
EDT Latitude Longitude Course Direction KTS MPH feet Rate Location/Type
01:25AM 50.4435 8.8920 305° West  Level Estimated
01:26AM 50.5012 8.7526 303° West  Level Estimated
01:27AM 50.5587 8.6127 303° West  Level Estimated
01:28AM 50.6160 8.4725 303° West  Level Estimated
01:29AM 50.6732 8.3320 303° West  Level Estimated
01:30AM 50.7302 8.1912 303° West  Level Estimated
01:31AM 50.7870 8.0500 303° West  Level Estimated
01:32AM 50.8437 7.9084 302° West  Level Estimated
01:33AM 50.9001 7.7665 302° West  Level Estimated
01:34AM 50.9565 7.6243 302° West  Level Estimated
01:35AM 51.0126 7.4817 302° West  Level Estimated
01:36AM 51.0686 7.3388 302° West  Level Estimated
01:37AM 51.1243 7.1955 302° West  Level Estimated
01:38AM 51.1800 7.0519 302° West  Level Estimated
01:39AM 51.2354 6.9079 302° West  Level Estimated
01:40AM 51.2895 6.7668 302° West  Level Estimated
01:41AM 51.2895 6.7668 46° Northeast  Level Estimated
01:42AM 51.2895 6.7668 314° West  Level Estimated
01:43AM 51.2895 6.7668 46° Northeast  Level Estimated
01:44AM 51.2895 6.7668 314° West  Level Estimated
01:45AM 51.2895 6.7668 46° Northeast  Level Estimated
01:46AM 51.2895 6.7668 314° West  Level Estimated
01:47AM 51.2895 6.7668 46° Northeast  Level Estimated
01:48AM 51.2895 6.7668 314° West  Level Estimated
01:49AM 51.2895 6.7668 46° Northeast  Level Estimated
01:50AM 51.2895 6.7668 314° West  Level Estimated
01:51AM 51.2895 6.7668 46° Northeast  Level Estimated
01:52AM 51.2895 6.7668 314° West  Level Estimated
01:53AM 51.2895 6.7668 46° Northeast  Level Estimated
01:54AM 51.2895 6.7668 314° West  Level Estimated
01:55AM 51.2895 6.7668 46° Northeast  Level Estimated
01:56AM 51.2895 6.7668 314° West  Level Estimated